sensor_id;sensor_type;location;lat;lon;timestamp;pressure;altitude;pressure_sealevel;temperature;humidity
19596;BME280;9945;46.010;8.946;2022-09-16T00:01:07;96280.44;;;21.25;72.74
19596;BME280;9945;46.010;8.946;2022-09-16T00:03:34;96287.25;;;21.21;71.68
19596;BME280;9945;46.010;8.946;2022-09-16T00:06:01;96289.81;;;21.15;72.25
19596;BME280;9945;46.010;8.946;2022-09-16T00:08:28;96286.56;;;21.13;71.48
19596;BME280;9945;46.010;8.946;2022-09-16T00:10:58;96274.78;;;21.09;71.30
19596;BME280;9945;46.010;8.946;2022-09-16T00:13:25;96278.16;;;21.05;71.45
19596;BME280;9945;46.010;8.946;2022-09-16T00:15:52;96278.38;;;21.03;71.85
19596;BME280;9945;46.010;8.946;2022-09-16T00:18:20;96279.19;;;21.04;70.91
19596;BME280;9945;46.010;8.946;2022-09-16T00:20:48;96276.53;;;21.04;71.35
19596;BME280;9945;46.010;8.946;2022-09-16T00:23:16;96273.06;;;21.03;69.17
19596;BME280;9945;46.010;8.946;2022-09-16T00:25:43;96270.41;;;21.03;70.00
19596;BME280;9945;46.010;8.946;2022-09-16T00:28:10;96266.13;;;21.02;69.47
19596;BME280;9945;46.010;8.946;2022-09-16T00:30:37;96269.25;;;20.99;69.82
19596;BME280;9945;46.010;8.946;2022-09-16T00:33:04;96263.38;;;20.97;69.70
19596;BME280;9945;46.010;8.946;2022-09-16T00:35:32;96262.69;;;20.90;70.06
19596;BME280;9945;46.010;8.946;2022-09-16T00:37:59;96265.81;;;20.87;70.44
19596;BME280;9945;46.010;8.946;2022-09-16T00:40:26;96271.28;;;20.81;69.12
19596;BME280;9945;46.010;8.946;2022-09-16T00:42:53;96268.28;;;20.77;70.36
19596;BME280;9945;46.010;8.946;2022-09-16T00:45:21;96277.56;;;20.74;70.22
19596;BME280;9945;46.010;8.946;2022-09-16T00:47:51;96267.72;;;20.75;69.50
19596;BME280;9945;46.010;8.946;2022-09-16T00:50:22;96270.63;;;20.73;70.80
19596;BME280;9945;46.010;8.946;2022-09-16T00:52:54;96267.38;;;20.71;71.11
19596;BME280;9945;46.010;8.946;2022-09-16T00:55:24;96272.34;;;20.68;71.74
19596;BME280;9945;46.010;8.946;2022-09-16T00:57:54;96272.59;;;20.66;72.00
19596;BME280;9945;46.010;8.946;2022-09-16T01:00:23;96272.03;;;20.64;72.67
19596;BME280;9945;46.010;8.946;2022-09-16T01:02:50;96274.91;;;20.63;71.86
19596;BME280;9945;46.010;8.946;2022-09-16T01:05:19;96275.94;;;20.62;72.65
19596;BME280;9945;46.010;8.946;2022-09-16T01:07:49;96272.47;;;20.61;73.21
19596;BME280;9945;46.010;8.946;2022-09-16T01:10:19;96280.13;;;20.58;74.14
19596;BME280;9945;46.010;8.946;2022-09-16T01:12:49;96275.84;;;20.57;72.96
19596;BME280;9945;46.010;8.946;2022-09-16T01:15:17;96272.38;;;20.56;73.42
19596;BME280;9945;46.010;8.946;2022-09-16T01:18:02;96263.81;;;20.54;73.01
19596;BME280;9945;46.010;8.946;2022-09-16T01:21:01;96261.16;;;20.54;73.91
19596;BME280;9945;46.010;8.946;2022-09-16T01:23:45;96261.63;;;20.51;73.62
19596;BME280;9945;46.010;8.946;2022-09-16T01:26:53;96265.31;;;20.50;72.41
19596;BME280;9945;46.010;8.946;2022-09-16T01:29:38;96262.09;;;20.48;72.85
19596;BME280;9945;46.010;8.946;2022-09-16T01:32:14;96255.75;;;20.49;73.56
19596;BME280;9945;46.010;8.946;2022-09-16T01:34:48;96261.28;;;20.48;73.90
19596;BME280;9945;46.010;8.946;2022-09-16T01:37:24;96252.63;;;20.41;73.99
19596;BME280;9945;46.010;8.946;2022-09-16T01:39:59;96259.44;;;20.36;73.38
19596;BME280;9945;46.010;8.946;2022-09-16T01:42:35;96250.31;;;20.32;72.58
19596;BME280;9945;46.010;8.946;2022-09-16T01:45:07;96252.97;;;20.32;71.99
19596;BME280;9945;46.010;8.946;2022-09-16T01:47:43;96256.88;;;20.30;70.81
19596;BME280;9945;46.010;8.946;2022-09-16T01:50:17;96243.22;;;20.26;72.05
19596;BME280;9945;46.010;8.946;2022-09-16T01:52:51;96253.31;;;20.24;72.01
19596;BME280;9945;46.010;8.946;2022-09-16T01:55:26;96249.03;;;20.23;71.69
19596;BME280;9945;46.010;8.946;2022-09-16T01:57:57;96251.69;;;20.23;72.61
19596;BME280;9945;46.010;8.946;2022-09-16T02:00:26;96252.03;;;20.15;73.71
19596;BME280;9945;46.010;8.946;2022-09-16T02:02:58;96255.16;;;20.12;74.13
19596;BME280;9945;46.010;8.946;2022-09-16T02:05:30;96257.13;;;20.05;75.07
19596;BME280;9945;46.010;8.946;2022-09-16T02:08:01;96251.22;;;20.03;75.89
19596;BME280;9945;46.010;8.946;2022-09-16T02:10:33;96250.63;;;20.01;73.34
19596;BME280;9945;46.010;8.946;2022-09-16T02:13:15;96245.31;;;20.01;74.60
19596;BME280;9945;46.010;8.946;2022-09-16T02:15:47;96244.28;;;20.02;74.71
19596;BME280;9945;46.010;8.946;2022-09-16T02:18:20;96240.22;;;19.99;74.80
19596;BME280;9945;46.010;8.946;2022-09-16T02:20:50;96240.81;;;20.01;74.97
19596;BME280;9945;46.010;8.946;2022-09-16T02:23:20;96245.91;;;20.03;75.08
19596;BME280;9945;46.010;8.946;2022-09-16T02:25:49;96244.06;;;20.03;73.84
19596;BME280;9945;46.010;8.946;2022-09-16T02:28:19;96240.81;;;20.01;73.36
19596;BME280;9945;46.010;8.946;2022-09-16T02:30:51;96240.16;;;20.06;70.42
19596;BME280;9945;46.010;8.946;2022-09-16T02:33:22;96236.44;;;20.07;71.37
19596;BME280;9945;46.010;8.946;2022-09-16T02:35:52;96229.84;;;20.10;69.72
19596;BME280;9945;46.010;8.946;2022-09-16T02:38:22;96236.78;;;20.11;70.89
19596;BME280;9945;46.010;8.946;2022-09-16T02:40:54;96234.13;;;20.11;70.38
19596;BME280;9945;46.010;8.946;2022-09-16T02:43:22;96232.28;;;20.11;70.16
19596;BME280;9945;46.010;8.946;2022-09-16T02:45:53;96233.88;;;20.12;69.42
19596;BME280;9945;46.010;8.946;2022-09-16T02:48:30;96234.94;;;20.11;71.08
19596;BME280;9945;46.010;8.946;2022-09-16T02:51:11;96230.66;;;20.10;71.80
19596;BME280;9945;46.010;8.946;2022-09-16T02:53:46;96238.28;;;20.07;72.66
19596;BME280;9945;46.010;8.946;2022-09-16T02:56:20;96232.84;;;20.01;71.81
19596;BME280;9945;46.010;8.946;2022-09-16T02:58:48;96237.34;;;20.01;72.17
19596;BME280;9945;46.010;8.946;2022-09-16T03:01:16;96226.63;;;19.96;73.03
19596;BME280;9945;46.010;8.946;2022-09-16T03:03:46;96241.97;;;19.94;72.15
19596;BME280;9945;46.010;8.946;2022-09-16T03:06:17;96237.38;;;19.89;73.02
19596;BME280;9945;46.010;8.946;2022-09-16T03:08:44;96233.75;;;19.84;73.18
19596;BME280;9945;46.010;8.946;2022-09-16T03:14:14;96224.41;;;19.70;72.94
19596;BME280;9945;46.010;8.946;2022-09-16T03:16:52;96225.88;;;19.65;72.50
19596;BME280;9945;46.010;8.946;2022-09-16T03:19:30;96223.13;;;19.60;72.45
19596;BME280;9945;46.010;8.946;2022-09-16T03:22:02;96227.63;;;19.60;72.06
19596;BME280;9945;46.010;8.946;2022-09-16T03:24:40;96219.06;;;19.58;73.17
19596;BME280;9945;46.010;8.946;2022-09-16T03:27:11;96221.38;;;19.54;72.79
19596;BME280;9945;46.010;8.946;2022-09-16T03:29:44;96228.53;;;19.54;73.18
19596;BME280;9945;46.010;8.946;2022-09-16T03:32:17;96226.13;;;19.52;73.08
19596;BME280;9945;46.010;8.946;2022-09-16T03:34:51;96228.53;;;19.54;73.30
19596;BME280;9945;46.010;8.946;2022-09-16T03:37:20;96221.38;;;19.54;72.82
19596;BME280;9945;46.010;8.946;2022-09-16T03:39:50;96214.25;;;19.55;72.81
19596;BME280;9945;46.010;8.946;2022-09-16T03:42:19;96214.47;;;19.53;74.11
19596;BME280;9945;46.010;8.946;2022-09-16T03:44:46;96209.72;;;19.55;73.08
19596;BME280;9945;46.010;8.946;2022-09-16T03:47:13;96213.19;;;19.56;73.35
19596;BME280;9945;46.010;8.946;2022-09-16T03:49:41;96210.78;;;19.54;73.25
19596;BME280;9945;46.010;8.946;2022-09-16T03:52:09;96205.69;;;19.53;72.80
19596;BME280;9945;46.010;8.946;2022-09-16T03:54:36;96202.00;;;19.54;73.35
19596;BME280;9945;46.010;8.946;2022-09-16T03:57:04;96207.97;;;19.49;73.83
19596;BME280;9945;46.010;8.946;2022-09-16T03:59:31;96199.88;;;19.44;74.35
19596;BME280;9945;46.010;8.946;2022-09-16T04:01:58;96202.16;;;19.41;74.45
19596;BME280;9945;46.010;8.946;2022-09-16T04:04:25;96200.78;;;19.38;74.27
19596;BME280;9945;46.010;8.946;2022-09-16T04:06:52;96200.19;;;19.36;73.83
19596;BME280;9945;46.010;8.946;2022-09-16T04:09:20;96202.84;;;19.36;73.83
19596;BME280;9945;46.010;8.946;2022-09-16T04:11:47;96199.97;;;19.38;73.84
19596;BME280;9945;46.010;8.946;2022-09-16T04:14:13;96198.34;;;19.37;73.57
19596;BME280;9945;46.010;8.946;2022-09-16T04:16:40;96196.94;;;19.34;74.00
19596;BME280;9945;46.010;8.946;2022-09-16T04:19:09;96195.56;;;19.32;73.85
19596;BME280;9945;46.010;8.946;2022-09-16T04:21:36;96190.50;;;19.30;74.37
19596;BME280;9945;46.010;8.946;2022-09-16T04:24:04;96190.72;;;19.28;73.97
19596;BME280;9945;46.010;8.946;2022-09-16T04:26:32;96189.53;;;19.24;74.88
19596;BME280;9945;46.010;8.946;2022-09-16T04:28:59;96187.69;;;19.25;75.29
19596;BME280;9945;46.010;8.946;2022-09-16T04:31:26;96188.97;;;19.22;75.95
19596;BME280;9945;46.010;8.946;2022-09-16T04:33:53;96188.72;;;19.24;75.29
19596;BME280;9945;46.010;8.946;2022-09-16T04:36:20;96182.63;;;19.23;74.75
19596;BME280;9945;46.010;8.946;2022-09-16T04:38:47;96183.56;;;19.29;73.90
19596;BME280;9945;46.010;8.946;2022-09-16T04:41:17;96190.84;;;19.34;73.55
19596;BME280;9945;46.010;8.946;2022-09-16T04:43:45;96197.53;;;19.36;73.47
19596;BME280;9945;46.010;8.946;2022-09-16T04:46:12;96203.78;;;19.42;73.51
19596;BME280;9945;46.010;8.946;2022-09-16T04:48:39;96200.09;;;19.43;73.58
19596;BME280;9945;46.010;8.946;2022-09-16T04:51:08;96198.03;;;19.45;73.16
19596;BME280;9945;46.010;8.946;2022-09-16T04:53:36;96208.78;;;19.50;73.71
19596;BME280;9945;46.010;8.946;2022-09-16T04:56:06;96198.38;;;19.48;73.00
19596;BME280;9945;46.010;8.946;2022-09-16T04:58:33;96203.34;;;19.45;73.13
19596;BME280;9945;46.010;8.946;2022-09-16T05:01:06;96201.47;;;19.45;73.77
19596;BME280;9945;46.010;8.946;2022-09-16T05:03:37;96197.59;;;19.48;72.82
19596;BME280;9945;46.010;8.946;2022-09-16T05:06:07;96213.53;;;19.48;73.07
19596;BME280;9945;46.010;8.946;2022-09-16T05:08:34;96204.13;;;19.45;73.51
19596;BME280;9945;46.010;8.946;2022-09-16T05:11:05;96210.06;;;19.47;73.43
19596;BME280;9945;46.010;8.946;2022-09-16T05:13:33;96208.22;;;19.48;72.93
19596;BME280;9945;46.010;8.946;2022-09-16T05:16:02;96216.19;;;19.48;72.78
19596;BME280;9945;46.010;8.946;2022-09-16T05:18:30;96207.84;;;19.44;72.80
19596;BME280;9945;46.010;8.946;2022-09-16T05:20:58;96212.09;;;19.45;73.21
19596;BME280;9945;46.010;8.946;2022-09-16T05:23:25;96206.34;;;19.48;72.91
19596;BME280;9945;46.010;8.946;2022-09-16T05:25:53;96202.91;;;19.48;73.24
19596;BME280;9945;46.010;8.946;2022-09-16T05:28:20;96208.22;;;19.48;74.17
19596;BME280;9945;46.010;8.946;2022-09-16T05:30:47;96206.94;;;19.50;73.38
19596;BME280;9945;46.010;8.946;2022-09-16T05:33:14;96206.50;;;19.53;72.16
19596;BME280;9945;46.010;8.946;2022-09-16T05:35:43;96207.31;;;19.54;72.08
19596;BME280;9945;46.010;8.946;2022-09-16T05:38:11;96209.47;;;19.57;72.02
19596;BME280;9945;46.010;8.946;2022-09-16T05:40:38;96207.63;;;19.57;71.28
19596;BME280;9945;46.010;8.946;2022-09-16T05:43:05;96200.69;;;19.56;71.82
19596;BME280;9945;46.010;8.946;2022-09-16T05:45:32;96206.28;;;19.55;71.68
19596;BME280;9945;46.010;8.946;2022-09-16T05:48:00;96203.25;;;19.51;72.01
19596;BME280;9945;46.010;8.946;2022-09-16T05:50:26;96201.72;;;19.44;72.46
19596;BME280;9945;46.010;8.946;2022-09-16T05:52:55;96204.59;;;19.42;72.56
19596;BME280;9945;46.010;8.946;2022-09-16T05:55:22;96215.94;;;19.49;73.03
19596;BME280;9945;46.010;8.946;2022-09-16T05:57:51;96209.72;;;19.55;71.67
19596;BME280;9945;46.010;8.946;2022-09-16T06:00:18;96208.59;;;19.63;71.43
19596;BME280;9945;46.010;8.946;2022-09-16T06:02:46;96198.66;;;19.70;70.25
19596;BME280;9945;46.010;8.946;2022-09-16T06:05:13;96200.75;;;19.80;70.22
19596;BME280;9945;46.010;8.946;2022-09-16T06:07:41;96197.63;;;19.94;69.42
19596;BME280;9945;46.010;8.946;2022-09-16T06:10:09;96202.56;;;20.14;68.46
19596;BME280;9945;46.010;8.946;2022-09-16T06:12:36;96201.28;;;20.40;68.13
19596;BME280;9945;46.010;8.946;2022-09-16T06:15:03;96200.22;;;20.53;67.82
19596;BME280;9945;46.010;8.946;2022-09-16T06:17:31;96200.03;;;20.71;66.28
19596;BME280;9945;46.010;8.946;2022-09-16T06:19:58;96203.22;;;20.85;67.16
19596;BME280;9945;46.010;8.946;2022-09-16T06:22:25;96203.66;;;20.93;65.45
19596;BME280;9945;46.010;8.946;2022-09-16T06:24:55;96197.53;;;20.93;63.88
19596;BME280;9945;46.010;8.946;2022-09-16T06:27:23;96198.72;;;21.13;63.79
19596;BME280;9945;46.010;8.946;2022-09-16T06:29:50;96207.78;;;21.29;63.19
19596;BME280;9945;46.010;8.946;2022-09-16T06:32:17;96202.31;;;21.52;62.92
19596;BME280;9945;46.010;8.946;2022-09-16T06:34:44;96204.03;;;21.75;62.45
19596;BME280;9945;46.010;8.946;2022-09-16T06:37:11;96207.97;;;22.06;60.62
19596;BME280;9945;46.010;8.946;2022-09-16T06:39:39;96203.81;;;22.32;59.80
19596;BME280;9945;46.010;8.946;2022-09-16T06:42:07;96207.28;;;22.54;58.91
19596;BME280;9945;46.010;8.946;2022-09-16T06:44:35;96205.22;;;22.78;57.15
19596;BME280;9945;46.010;8.946;2022-09-16T06:47:02;96199.91;;;23.05;56.14
19596;BME280;9945;46.010;8.946;2022-09-16T06:49:29;96200.44;;;23.34;55.64
19596;BME280;9945;46.010;8.946;2022-09-16T06:51:56;96211.53;;;23.48;55.62
19596;BME280;9945;46.010;8.946;2022-09-16T06:54:23;96209.00;;;23.63;54.39
19596;BME280;9945;46.010;8.946;2022-09-16T06:56:50;96205.88;;;23.71;55.10
19596;BME280;9945;46.010;8.946;2022-09-16T06:59:17;96209.69;;;23.80;52.79
19596;BME280;9945;46.010;8.946;2022-09-16T07:01:45;96206.53;;;23.88;52.56
19596;BME280;9945;46.010;8.946;2022-09-16T07:04:12;96207.09;;;23.95;53.03
19596;BME280;9945;46.010;8.946;2022-09-16T07:06:39;96209.88;;;23.73;53.33
19596;BME280;9945;46.010;8.946;2022-09-16T07:09:06;96219.94;;;23.61;54.10
19596;BME280;9945;46.010;8.946;2022-09-16T07:11:34;96211.69;;;23.63;53.42
19596;BME280;9945;46.010;8.946;2022-09-16T07:14:01;96205.69;;;23.51;54.13
19596;BME280;9945;46.010;8.946;2022-09-16T07:16:29;96215.97;;;23.37;54.86
19596;BME280;9945;46.010;8.946;2022-09-16T07:18:58;96210.59;;;23.05;56.28
19596;BME280;9945;46.010;8.946;2022-09-16T07:21:26;96213.03;;;23.12;56.37
19596;BME280;9945;46.010;8.946;2022-09-16T07:23:55;96203.63;;;22.82;58.30
19596;BME280;9945;46.010;8.946;2022-09-16T07:26:25;96206.44;;;22.92;57.91
19596;BME280;9945;46.010;8.946;2022-09-16T07:28:53;96209.22;;;23.02;57.75
19596;BME280;9945;46.010;8.946;2022-09-16T07:31:22;96208.50;;;23.12;57.36
19596;BME280;9945;46.010;8.946;2022-09-16T07:33:51;96208.44;;;23.34;56.87
19596;BME280;9945;46.010;8.946;2022-09-16T07:36:22;96208.44;;;23.61;56.21
19596;BME280;9945;46.010;8.946;2022-09-16T07:38:49;96203.53;;;23.85;55.07
19596;BME280;9945;46.010;8.946;2022-09-16T07:41:19;96206.97;;;24.17;54.13
19596;BME280;9945;46.010;8.946;2022-09-16T07:43:47;96212.28;;;24.49;54.50
19596;BME280;9945;46.010;8.946;2022-09-16T07:46:15;96211.16;;;24.45;52.89
19596;BME280;9945;46.010;8.946;2022-09-16T07:48:44;96213.28;;;24.38;51.26
19596;BME280;9945;46.010;8.946;2022-09-16T07:51:13;96213.59;;;24.51;52.22
19596;BME280;9945;46.010;8.946;2022-09-16T07:53:42;96217.41;;;24.61;53.57
19596;BME280;9945;46.010;8.946;2022-09-16T07:56:13;96226.22;;;24.61;52.10
19596;BME280;9945;46.010;8.946;2022-09-16T07:58:41;96226.28;;;24.71;50.38
19596;BME280;9945;46.010;8.946;2022-09-16T08:01:09;96223.34;;;24.78;49.29
19596;BME280;9945;46.010;8.946;2022-09-16T08:03:38;96227.94;;;24.87;48.43
19596;BME280;9945;46.010;8.946;2022-09-16T08:06:08;96231.06;;;24.64;49.22
19596;BME280;9945;46.010;8.946;2022-09-16T08:08:36;96231.63;;;24.66;49.98
19596;BME280;9945;46.010;8.946;2022-09-16T08:11:05;96231.06;;;24.64;49.09
19596;BME280;9945;46.010;8.946;2022-09-16T08:13:33;96236.78;;;24.83;49.33
19596;BME280;9945;46.010;8.946;2022-09-16T08:16:01;96241.44;;;25.08;48.24
19596;BME280;9945;46.010;8.946;2022-09-16T08:18:29;96252.16;;;25.08;46.56
19596;BME280;9945;46.010;8.946;2022-09-16T08:20:56;96252.47;;;25.21;46.68
19596;BME280;9945;46.010;8.946;2022-09-16T08:23:25;96249.56;;;25.43;45.54
19596;BME280;9945;46.010;8.946;2022-09-16T08:25:55;96250.72;;;25.93;44.83
19596;BME280;9945;46.010;8.946;2022-09-16T08:28:25;96250.09;;;26.57;43.51
19596;BME280;9945;46.010;8.946;2022-09-16T08:30:53;96243.53;;;26.88;42.07
19596;BME280;9945;46.010;8.946;2022-09-16T08:33:20;96251.34;;;26.95;43.11
19596;BME280;9945;46.010;8.946;2022-09-16T08:35:57;96258.00;;;27.52;42.31
19596;BME280;9945;46.010;8.946;2022-09-16T08:38:24;96249.94;;;27.91;41.87
19596;BME280;9945;46.010;8.946;2022-09-16T08:40:54;96250.81;;;28.20;40.91
19596;BME280;9945;46.010;8.946;2022-09-16T08:43:28;96248.63;;;28.75;39.79
19596;BME280;9945;46.010;8.946;2022-09-16T08:46:05;96251.94;;;29.14;39.26
19596;BME280;9945;46.010;8.946;2022-09-16T08:48:42;96255.53;;;29.66;37.76
19596;BME280;9945;46.010;8.946;2022-09-16T08:51:14;96254.88;;;30.25;37.41
19596;BME280;9945;46.010;8.946;2022-09-16T08:53:47;96247.13;;;31.06;33.38
19596;BME280;9945;46.010;8.946;2022-09-16T08:56:19;96261.06;;;34.51;30.42
19596;BME280;9945;46.010;8.946;2022-09-16T08:58:50;96262.34;;;37.80;23.99
19596;BME280;9945;46.010;8.946;2022-09-16T09:01:23;96270.25;;;39.82;21.76
19596;BME280;9945;46.010;8.946;2022-09-16T09:03:53;96259.69;;;40.42;21.75
19596;BME280;9945;46.010;8.946;2022-09-16T09:06:29;96264.19;;;43.16;19.68
19596;BME280;9945;46.010;8.946;2022-09-16T09:09:10;96254.28;;;45.06;17.75
19596;BME280;9945;46.010;8.946;2022-09-16T09:11:45;96254.69;;;47.03;15.41
19596;BME280;9945;46.010;8.946;2022-09-16T09:14:33;96254.69;;;48.16;15.06
19596;BME280;9945;46.010;8.946;2022-09-16T09:17:10;96248.50;;;49.36;14.00
19596;BME280;9945;46.010;8.946;2022-09-16T09:19:51;96251.81;;;50.85;12.38
19596;BME280;9945;46.010;8.946;2022-09-16T09:22:29;96255.00;;;52.19;11.22
19596;BME280;9945;46.010;8.946;2022-09-16T09:25:21;96256.22;;;53.32;10.22
19596;BME280;9945;46.010;8.946;2022-09-16T09:28:02;96244.81;;;54.26;10.18
19596;BME280;9945;46.010;8.946;2022-09-16T09:30:37;96249.09;;;54.80;9.51
19596;BME280;9945;46.010;8.946;2022-09-16T09:33:18;96245.66;;;55.43;8.50
19596;BME280;9945;46.010;8.946;2022-09-16T09:36:03;96255.41;;;56.39;7.96
19596;BME280;9945;46.010;8.946;2022-09-16T09:38:49;96210.00;;;48.03;13.35
19596;BME280;9945;46.010;8.946;2022-09-16T09:41:23;96201.69;;;42.83;17.48
19596;BME280;9945;46.010;8.946;2022-09-16T09:43:57;96184.38;;;40.39;19.72
19596;BME280;9945;46.010;8.946;2022-09-16T09:46:34;96179.72;;;37.86;22.66
19596;BME280;9945;46.010;8.946;2022-09-16T09:49:09;96179.34;;;36.59;23.22
19596;BME280;9945;46.010;8.946;2022-09-16T09:51:40;96180.28;;;35.52;24.79
19596;BME280;9945;46.010;8.946;2022-09-16T09:54:22;96174.66;;;34.86;26.01
19596;BME280;9945;46.010;8.946;2022-09-16T09:56:53;96173.06;;;34.47;26.84
19596;BME280;9945;46.010;8.946;2022-09-16T09:59:26;96165.38;;;33.94;27.64
19596;BME280;9945;46.010;8.946;2022-09-16T10:01:56;96164.94;;;33.49;27.77
19596;BME280;9945;46.010;8.946;2022-09-16T10:04:25;96156.88;;;32.84;28.08
19596;BME280;9945;46.010;8.946;2022-09-16T10:06:53;96151.63;;;32.39;29.64
19596;BME280;9945;46.010;8.946;2022-09-16T10:09:21;96153.59;;;32.16;30.34
19596;BME280;9945;46.010;8.946;2022-09-16T10:11:51;96149.59;;;32.14;29.53
19596;BME280;9945;46.010;8.946;2022-09-16T10:14:26;96149.22;;;32.07;30.62
19596;BME280;9945;46.010;8.946;2022-09-16T10:16:59;96149.19;;;31.98;31.82
19596;BME280;9945;46.010;8.946;2022-09-16T10:19:28;96147.78;;;32.09;29.46
19596;BME280;9945;46.010;8.946;2022-09-16T10:22:08;96137.09;;;32.04;30.95
19596;BME280;9945;46.010;8.946;2022-09-16T10:24:37;96132.03;;;32.11;29.49
19596;BME280;9945;46.010;8.946;2022-09-16T10:27:18;96130.09;;;32.03;29.28
19596;BME280;9945;46.010;8.946;2022-09-16T10:29:45;96126.28;;;31.82;28.85
19596;BME280;9945;46.010;8.946;2022-09-16T10:32:17;96122.63;;;31.78;28.45
19596;BME280;9945;46.010;8.946;2022-09-16T10:34:45;96119.31;;;31.81;28.80
19596;BME280;9945;46.010;8.946;2022-09-16T10:37:16;96118.00;;;31.78;28.41
19596;BME280;9945;46.010;8.946;2022-09-16T10:39:50;96108.47;;;31.81;28.85
19596;BME280;9945;46.010;8.946;2022-09-16T10:42:19;96110.28;;;31.94;29.40
19596;BME280;9945;46.010;8.946;2022-09-16T10:44:47;96103.53;;;31.83;29.71
19596;BME280;9945;46.010;8.946;2022-09-16T10:47:19;96104.81;;;31.85;29.68
19596;BME280;9945;46.010;8.946;2022-09-16T10:49:49;96099.84;;;31.79;29.44
19596;BME280;9945;46.010;8.946;2022-09-16T10:52:19;96091.53;;;31.75;29.16
19596;BME280;9945;46.010;8.946;2022-09-16T10:54:47;96098.84;;;31.75;29.82
19596;BME280;9945;46.010;8.946;2022-09-16T10:57:23;96091.84;;;31.74;28.53
19596;BME280;9945;46.010;8.946;2022-09-16T11:00:04;96091.88;;;31.82;29.22
19596;BME280;9945;46.010;8.946;2022-09-16T11:02:59;96077.50;;;32.04;28.83
19596;BME280;9945;46.010;8.946;2022-09-16T11:05:33;96079.91;;;32.06;29.13
19596;BME280;9945;46.010;8.946;2022-09-16T11:08:09;96078.69;;;32.20;29.06
19596;BME280;9945;46.010;8.946;2022-09-16T11:10:42;96078.09;;;32.32;28.20
19596;BME280;9945;46.010;8.946;2022-09-16T11:13:30;96069.66;;;32.42;28.27
19596;BME280;9945;46.010;8.946;2022-09-16T11:16:12;96072.75;;;32.58;27.70
19596;BME280;9945;46.010;8.946;2022-09-16T11:18:50;96072.41;;;32.59;27.90
19596;BME280;9945;46.010;8.946;2022-09-16T11:21:38;96075.28;;;32.63;28.41
19596;BME280;9945;46.010;8.946;2022-09-16T11:24:22;96071.31;;;32.69;27.70
19596;BME280;9945;46.010;8.946;2022-09-16T11:26:56;96064.94;;;32.65;27.40
19596;BME280;9945;46.010;8.946;2022-09-16T11:29:39;96074.72;;;32.92;27.10
19596;BME280;9945;46.010;8.946;2022-09-16T11:32:14;96069.75;;;33.02;27.55
19596;BME280;9945;46.010;8.946;2022-09-16T11:35:05;96065.75;;;33.17;26.07
19596;BME280;9945;46.010;8.946;2022-09-16T11:37:42;96067.53;;;33.22;26.49
19596;BME280;9945;46.010;8.946;2022-09-16T11:40:21;96061.28;;;33.13;25.66
19596;BME280;9945;46.010;8.946;2022-09-16T11:42:57;96066.88;;;33.16;26.76
19596;BME280;9945;46.010;8.946;2022-09-16T11:45:40;96067.69;;;33.17;25.42
19596;BME280;9945;46.010;8.946;2022-09-16T11:48:27;96053.47;;;33.02;24.49
19596;BME280;9945;46.010;8.946;2022-09-16T11:51:02;96055.72;;;32.83;25.58
19596;BME280;9945;46.010;8.946;2022-09-16T11:53:49;96059.19;;;33.01;27.28
19596;BME280;9945;46.010;8.946;2022-09-16T11:56:24;96060.00;;;33.01;25.03
19596;BME280;9945;46.010;8.946;2022-09-16T11:59:01;96053.63;;;32.89;25.33
19596;BME280;9945;46.010;8.946;2022-09-16T12:01:35;96053.00;;;32.83;24.59
19596;BME280;9945;46.010;8.946;2022-09-16T12:04:10;96053.63;;;32.89;25.15
19596;BME280;9945;46.010;8.946;2022-09-16T12:06:45;96037.34;;;32.80;23.04
19596;BME280;9945;46.010;8.946;2022-09-16T12:09:19;96037.97;;;32.77;25.12
19596;BME280;9945;46.010;8.946;2022-09-16T12:11:51;96032.06;;;32.92;25.58
19596;BME280;9945;46.010;8.946;2022-09-16T12:14:23;96031.13;;;33.05;26.57
19596;BME280;9945;46.010;8.946;2022-09-16T12:16:55;96027.41;;;33.19;25.18
19596;BME280;9945;46.010;8.946;2022-09-16T12:19:28;96024.72;;;33.27;24.80
19596;BME280;9945;46.010;8.946;2022-09-16T12:22:03;96021.38;;;33.13;23.91
19596;BME280;9945;46.010;8.946;2022-09-16T12:24:36;96015.34;;;32.99;23.86
19596;BME280;9945;46.010;8.946;2022-09-16T12:27:09;96014.06;;;32.96;24.61
19596;BME280;9945;46.010;8.946;2022-09-16T12:29:43;96011.03;;;32.98;24.34
19596;BME280;9945;46.010;8.946;2022-09-16T12:32:18;96015.78;;;32.75;24.52
19596;BME280;9945;46.010;8.946;2022-09-16T12:34:49;96007.84;;;32.70;24.77
19596;BME280;9945;46.010;8.946;2022-09-16T12:37:31;96005.59;;;32.98;25.51
19596;BME280;9945;46.010;8.946;2022-09-16T12:40:01;95998.25;;;32.98;25.20
19596;BME280;9945;46.010;8.946;2022-09-16T12:43:10;95998.69;;;33.18;23.76
19596;BME280;9945;46.010;8.946;2022-09-16T12:45:57;95994.69;;;33.32;24.66
19596;BME280;9945;46.010;8.946;2022-09-16T12:51:59;95991.09;;;33.58;23.59
19596;BME280;9945;46.010;8.946;2022-09-16T12:54:49;95988.63;;;33.82;23.14
19596;BME280;9945;46.010;8.946;2022-09-16T12:57:32;95978.19;;;33.93;21.82
19596;BME280;9945;46.010;8.946;2022-09-16T13:00:13;95977.31;;;34.09;22.41
19596;BME280;9945;46.010;8.946;2022-09-16T13:02:45;95981.00;;;34.34;23.31
19596;BME280;9945;46.010;8.946;2022-09-16T13:05:19;95978.03;;;34.48;23.07
19596;BME280;9945;46.010;8.946;2022-09-16T13:07:50;95967.69;;;34.62;23.41
19596;BME280;9945;46.010;8.946;2022-09-16T13:10:24;95965.34;;;34.52;24.47
19596;BME280;9945;46.010;8.946;2022-09-16T13:12:54;95960.78;;;34.85;22.94
19596;BME280;9945;46.010;8.946;2022-09-16T13:15:24;95963.59;;;35.67;22.02
19596;BME280;9945;46.010;8.946;2022-09-16T13:17:52;95960.00;;;36.24;21.21
19596;BME280;9945;46.010;8.946;2022-09-16T13:20:26;95959.88;;;36.20;22.37
19596;BME280;9945;46.010;8.946;2022-09-16T13:23:05;95953.16;;;36.30;22.31
19596;BME280;9945;46.010;8.946;2022-09-16T13:25:48;95955.66;;;36.11;22.06
19596;BME280;9945;46.010;8.946;2022-09-16T13:28:24;95956.56;;;35.54;22.22
19596;BME280;9945;46.010;8.946;2022-09-16T13:30:53;95948.59;;;35.16;22.59
19596;BME280;9945;46.010;8.946;2022-09-16T13:33:24;95945.84;;;34.71;23.64
19596;BME280;9945;46.010;8.946;2022-09-16T13:39:00;95934.78;;;33.84;23.68
19596;BME280;9945;46.010;8.946;2022-09-16T13:41:32;95937.53;;;33.75;24.73
19596;BME280;9945;46.010;8.946;2022-09-16T13:44:00;95946.38;;;33.93;24.62